Time;durP1;ratioP1;P1;durP2;ratioP2;P2;SDS_P1;SDS_P2;PMS_P1;PMS_P2;Temp;Humidity;BMP_temperature;BMP_pressure;BME280_temperature;BME280_humidity;BME280_pressure;Samples;Min_cycle;Max_cycle;Signal;HPM_P1;HPM_P2
2021/12/14 00:01:34;;;;;;;9.10;6.47;;;9.20;99.90;;;;;;5073059;28;20313;-53
2021/12/14 00:04:11;;;;;;;9.20;6.87;;;9.10;99.90;;;;;;5066322;28;20215;-53
2021/12/14 00:06:40;;;;;;;11.47;7.43;;;9.00;99.90;;;;;;5072630;28;20236;-53
2021/12/14 00:09:12;;;;;;;8.33;6.53;;;9.00;99.90;;;;;;5073459;28;20242;-53
2021/12/14 00:16:54;;;;;;;9.50;6.80;;;9.00;99.90;;;;;;5076893;28;20202;-52
2021/12/14 00:19:21;;;;;;;7.10;6.23;;;9.10;99.90;;;;;;5081088;28;20203;-56
2021/12/14 00:21:51;;;;;;;8.40;6.80;;;9.00;99.90;;;;;;5077680;28;20291;-55
2021/12/14 00:24:22;;;;;;;8.93;7.17;;;9.00;99.90;;;;;;5072264;28;20238;-55
2021/12/14 00:27:03;;;;;;;12.33;7.40;;;9.10;99.90;;;;;;5079396;28;20207;-52
2021/12/14 00:29:35;;;;;;;8.77;6.60;;;9.00;99.90;;;;;;5088194;28;20284;-53
2021/12/14 00:32:07;;;;;;;8.70;7.03;;;9.00;99.90;;;;;;5080754;28;20324;-53
2021/12/14 00:34:41;;;;;;;9.27;7.60;;;9.00;99.90;;;;;;5075055;28;20216;-54
2021/12/14 00:37:21;;;;;;;9.70;6.67;;;9.10;99.90;;;;;;5078393;28;20292;-52
2021/12/14 00:39:49;;;;;;;9.10;7.40;;;9.00;99.90;;;;;;5075212;28;20229;-54
2021/12/14 00:42:17;;;;;;;9.33;7.13;;;8.90;99.90;;;;;;5075002;28;20205;-53
2021/12/14 00:44:45;;;;;;;10.83;7.70;;;9.00;99.90;;;;;;5074545;28;20297;-54
2021/12/14 00:47:13;;;;;;;10.50;7.07;;;9.00;99.90;;;;;;5078797;28;20204;-51
2021/12/14 00:49:40;;;;;;;11.00;7.63;;;8.90;99.90;;;;;;5076243;28;20274;-54
2021/12/14 00:52:08;;;;;;;10.13;7.33;;;9.00;99.90;;;;;;5075136;28;20332;-54
2021/12/14 00:54:37;;;;;;;10.47;7.37;;;8.90;99.90;;;;;;5076749;28;20262;-54
2021/12/14 00:57:06;;;;;;;10.40;7.67;;;8.80;99.90;;;;;;5075404;28;20239;-54
2021/12/14 00:59:33;;;;;;;10.50;7.63;;;8.90;99.90;;;;;;5072361;28;20227;-54
2021/12/14 01:02:23;;;;;;;12.70;9.20;;;8.90;99.90;;;;;;5075138;28;20212;-53
2021/12/14 01:04:56;;;;;;;11.53;7.97;;;8.90;99.90;;;;;;5073222;28;20297;-53
2021/12/14 01:07:28;;;;;;;12.63;8.37;;;8.90;99.90;;;;;;5086232;28;20195;-55
2021/12/14 01:09:58;;;;;;;10.90;8.53;;;8.90;99.90;;;;;;5074090;28;20606;-55
2021/12/14 01:12:39;;;;;;;10.70;8.47;;;8.90;99.90;;;;;;5075350;28;21300;-54
2021/12/14 01:15:27;;;;;;;13.17;9.47;;;8.80;99.90;;;;;;5073332;28;21917;-54
2021/12/14 01:21:02;;;;;;;12.97;8.83;;;8.90;99.90;;;;;;5073091;28;20198;-54
2021/12/14 01:23:33;;;;;;;17.77;9.30;;;8.90;99.90;;;;;;5073908;28;20208;-53
2021/12/14 01:26:08;;;;;;;12.43;9.10;;;9.00;99.90;;;;;;5075298;28;20632;-54
2021/12/14 01:28:35;;;;;;;11.97;8.70;;;9.10;99.90;;;;;;5073590;28;20247;-55
2021/12/14 01:31:16;;;;;;;13.00;9.13;;;9.00;99.90;;;;;;5074302;28;20293;-55
2021/12/14 01:33:47;;;;;;;13.40;8.53;;;8.90;99.90;;;;;;5073055;28;20218;-55
2021/12/14 01:36:36;;;;;;;13.17;9.43;;;8.90;99.90;;;;;;5075819;28;20287;-55
2021/12/14 01:42:10;;;;;;;12.83;8.53;;;8.90;99.90;;;;;;5077868;28;20236;-53
2021/12/14 01:44:47;;;;;;;12.43;8.83;;;8.80;99.90;;;;;;5068465;28;20224;-52
2021/12/14 01:47:19;;;;;;;15.57;9.60;;;9.00;99.90;;;;;;5069832;28;20303;-55
2021/12/14 01:49:47;;;;;;;11.83;8.63;;;8.90;99.90;;;;;;5073354;28;20192;-54
2021/12/14 01:52:20;;;;;;;36.47;9.87;;;8.90;99.90;;;;;;5074492;28;20259;-54
2021/12/14 01:54:51;;;;;;;13.57;9.47;;;8.80;99.90;;;;;;5077242;28;21085;-55
2021/12/14 01:57:21;;;;;;;13.20;9.57;;;8.80;99.90;;;;;;5070694;28;20210;-54
2021/12/14 01:59:49;;;;;;;15.70;9.77;;;8.70;99.90;;;;;;5075856;28;20584;-54
2021/12/14 02:02:31;;;;;;;14.27;9.90;;;8.70;99.90;;;;;;5072838;28;20600;-55
2021/12/14 02:05:02;;;;;;;12.57;9.50;;;8.70;99.90;;;;;;5067157;28;20273;-54
2021/12/14 02:07:31;;;;;;;11.90;8.57;;;8.70;99.90;;;;;;5061015;28;20199;-53
2021/12/14 02:10:08;;;;;;;13.90;9.60;;;8.70;99.90;;;;;;5072871;28;20870;-53
2021/12/14 02:12:36;;;;;;;14.87;9.80;;;8.70;99.90;;;;;;5074019;28;20219;-54
2021/12/14 02:15:11;;;;;;;14.87;9.30;;;8.70;99.90;;;;;;5074545;28;20204;-54
2021/12/14 02:17:40;;;;;;;11.77;9.10;;;8.70;99.90;;;;;;5068981;28;21177;-54
2021/12/14 02:20:09;;;;;;;15.40;8.90;;;8.70;99.90;;;;;;5072573;28;20637;-56
2021/12/14 02:22:36;;;;;;;11.07;8.70;;;8.70;99.90;;;;;;5076652;28;20201;-54
2021/12/14 02:25:05;;;;;;;15.13;9.60;;;8.70;99.90;;;;;;5075474;28;20226;-51
2021/12/14 02:27:38;;;;;;;14.77;9.00;;;8.60;99.90;;;;;;5068785;28;20280;-52
2021/12/14 02:30:09;;;;;;;12.47;8.63;;;8.60;99.90;;;;;;5074213;28;20203;-54
2021/12/14 02:32:36;;;;;;;12.33;7.70;;;8.60;99.90;;;;;;5073445;28;22020;-53
2021/12/14 02:35:09;;;;;;;12.40;8.43;;;8.60;99.90;;;;;;5071745;28;20675;-54
2021/12/14 02:37:48;;;;;;;12.87;8.07;;;8.60;99.90;;;;;;5072443;28;20231;-55
2021/12/14 02:40:57;;;;;;;11.57;7.63;;;8.60;99.90;;;;;;5073926;28;20269;-53
2021/12/14 02:43:42;;;;;;;12.33;7.30;;;8.60;99.90;;;;;;5075977;28;20245;-53
2021/12/14 02:46:16;;;;;;;11.07;8.00;;;8.60;99.90;;;;;;5073979;28;20210;-52
2021/12/14 02:48:47;;;;;;;10.27;7.13;;;8.60;99.90;;;;;;5065634;28;20260;-53
2021/12/14 02:51:17;;;;;;;20.97;6.87;;;8.60;99.90;;;;;;5070787;28;20243;-54
2021/12/14 02:53:46;;;;;;;9.50;6.93;;;8.60;99.90;;;;;;5088540;28;20250;-53
2021/12/14 02:56:17;;;;;;;9.70;6.00;;;8.60;99.90;;;;;;5073526;28;20239;-54
2021/12/14 02:58:47;;;;;;;8.90;5.93;;;8.60;99.90;;;;;;5071438;28;20597;-53
2021/12/14 03:01:17;;;;;;;9.37;6.30;;;8.60;99.90;;;;;;5070289;28;20209;-54
2021/12/14 03:03:44;;;;;;;8.97;6.40;;;8.50;99.90;;;;;;5067841;28;20244;-55
2021/12/14 03:06:18;;;;;;;9.00;5.87;;;8.50;99.90;;;;;;5072169;28;20230;-54
2021/12/14 03:08:56;;;;;;;8.63;6.30;;;8.40;99.90;;;;;;5070767;28;20244;-53
2021/12/14 03:11:24;;;;;;;9.43;6.10;;;8.50;99.90;;;;;;5075824;28;20261;-55
2021/12/14 03:13:52;;;;;;;8.77;5.40;;;8.50;99.90;;;;;;5077475;28;20215;-54
2021/12/14 03:16:26;;;;;;;10.70;6.33;;;8.50;99.90;;;;;;5069231;28;20288;-53
2021/12/14 03:18:55;;;;;;;7.43;5.20;;;8.50;99.90;;;;;;5068373;28;21530;-53
2021/12/14 03:21:29;;;;;;;7.37;5.37;;;8.50;99.90;;;;;;5068842;28;20236;-53
2021/12/14 03:24:10;;;;;;;7.13;5.17;;;8.60;99.90;;;;;;5073766;28;21096;-53
2021/12/14 03:26:40;;;;;;;8.33;4.97;;;8.50;99.90;;;;;;5071931;28;20812;-56
2021/12/14 03:29:11;;;;;;;7.30;4.97;;;8.40;99.90;;;;;;5073569;28;20224;-55
2021/12/14 03:31:42;;;;;;;8.17;5.20;;;8.40;99.90;;;;;;5073163;28;20237;-53
2021/12/14 03:34:16;;;;;;;7.77;5.37;;;8.30;99.90;;;;;;5076505;28;20665;-54
2021/12/14 03:36:58;;;;;;;8.17;5.27;;;8.40;99.90;;;;;;5070498;28;20211;-53
2021/12/14 03:39:30;;;;;;;8.53;5.30;;;8.30;99.90;;;;;;5074853;28;20691;-54
2021/12/14 03:42:35;;;;;;;7.87;4.93;;;8.30;99.90;;;;;;5072350;28;20942;-54
2021/12/14 03:45:09;;;;;;;9.00;4.80;;;8.40;99.90;;;;;;5070895;28;20212;-55
2021/12/14 03:47:40;;;;;;;10.90;5.53;;;8.40;99.90;;;;;;5067541;28;20645;-55
2021/12/14 03:50:13;;;;;;;6.97;4.63;;;8.40;99.90;;;;;;5070720;28;20582;-53
2021/12/14 03:52:41;;;;;;;7.23;5.33;;;8.40;99.90;;;;;;5073177;28;20744;-57
2021/12/14 03:55:26;;;;;;;7.93;4.63;;;8.50;99.90;;;;;;5079123;28;20220;-55
2021/12/14 03:57:53;;;;;;;10.20;4.77;;;8.40;99.90;;;;;;5068486;28;20233;-55
2021/12/14 04:00:24;;;;;;;7.73;4.97;;;8.40;99.90;;;;;;5074269;28;20205;-57
2021/12/14 04:02:54;;;;;;;8.37;5.20;;;8.40;99.90;;;;;;5069100;28;20622;-55
2021/12/14 04:05:21;;;;;;;10.17;5.10;;;8.40;99.90;;;;;;5069701;28;20206;-57
2021/12/14 04:07:48;;;;;;;8.77;5.57;;;8.40;99.90;;;;;;5069194;28;20652;-57
2021/12/14 04:10:23;;;;;;;8.60;5.70;;;8.30;99.90;;;;;;5069206;28;20212;-56
2021/12/14 04:12:52;;;;;;;9.30;5.33;;;8.40;99.90;;;;;;5074836;28;20583;-55
2021/12/14 04:15:20;;;;;;;9.53;5.83;;;8.30;99.90;;;;;;5074135;28;20683;-57
2021/12/14 04:17:48;;;;;;;11.30;6.60;;;8.40;99.90;;;;;;5067474;28;20282;-55
2021/12/14 04:20:25;;;;;;;9.70;5.93;;;8.40;99.90;;;;;;5070321;28;20228;-57
2021/12/14 04:22:54;;;;;;;7.80;5.63;;;8.30;99.90;;;;;;5066555;28;20681;-55
2021/12/14 04:25:27;;;;;;;10.43;6.57;;;8.30;99.90;;;;;;5071673;28;20203;-55
2021/12/14 04:27:56;;;;;;;12.40;6.57;;;8.30;99.90;;;;;;5071208;28;20230;-55
2021/12/14 04:30:24;;;;;;;9.67;6.63;;;8.20;99.90;;;;;;5074999;28;20634;-55
2021/12/14 04:32:57;;;;;;;13.00;7.17;;;8.30;99.90;;;;;;5072332;28;20665;-56
2021/12/14 04:35:25;;;;;;;10.67;6.40;;;8.40;99.90;;;;;;5074938;28;20555;-55
2021/12/14 04:37:59;;;;;;;13.27;7.33;;;8.30;99.90;;;;;;5070673;28;20805;-56
2021/12/14 04:52:00;;;;;;;11.87;7.30;;;8.20;99.90;;;;;;5072916;28;20288;-54
2021/12/14 04:54:44;;;;;;;10.23;6.80;;;8.20;99.90;;;;;;5073195;28;20221;-54
2021/12/14 04:57:23;;;;;;;11.70;7.10;;;8.20;99.90;;;;;;5070984;28;20244;-57
2021/12/14 04:59:53;;;;;;;12.10;7.60;;;8.20;99.90;;;;;;5076806;28;20202;-56
2021/12/14 05:02:27;;;;;;;11.40;7.47;;;8.20;99.90;;;;;;5078593;28;20580;-56
2021/12/14 05:04:56;;;;;;;10.93;7.50;;;8.20;99.90;;;;;;5077066;28;20198;-56
2021/12/14 05:10:07;;;;;;;13.77;8.23;;;8.20;99.90;;;;;;5075133;28;20224;-55
2021/12/14 05:12:35;;;;;;;10.60;7.50;;;8.20;99.90;;;;;;5076767;28;20862;-55
2021/12/14 05:15:08;;;;;;;12.17;7.27;;;8.20;99.90;;;;;;5071290;28;20336;-55
2021/12/14 05:17:38;;;;;;;14.50;8.20;;;8.20;99.90;;;;;;5086241;28;20282;-55
2021/12/14 05:20:09;;;;;;;11.50;7.57;;;8.20;99.90;;;;;;5071966;28;20386;-55
2021/12/14 05:22:37;;;;;;;11.83;8.00;;;8.20;99.90;;;;;;5078689;28;20281;-57
2021/12/14 05:25:13;;;;;;;12.60;8.30;;;8.20;99.90;;;;;;5069510;28;20640;-57
2021/12/14 05:27:48;;;;;;;12.50;8.47;;;8.20;99.90;;;;;;5071847;28;20726;-55
2021/12/14 05:30:25;;;;;;;13.67;9.03;;;8.20;99.90;;;;;;5071889;28;20715;-56
2021/12/14 05:33:14;;;;;;;11.67;8.57;;;8.20;99.90;;;;;;5073132;28;20287;-57
2021/12/14 05:35:45;;;;;;;13.27;8.43;;;8.20;99.90;;;;;;5071548;28;20224;-57
2021/12/14 05:38:40;;;;;;;12.90;8.57;;;8.30;99.90;;;;;;5065508;28;20228;-56
2021/12/14 05:43:05;;;;;;;15.37;8.57;;;8.30;99.90;;;;;;5074508;28;20348;-54
2021/12/14 05:44:00;;;;;;;14.50;8.93;;;8.30;99.90;;;;;;5082243;28;20750;-55
2021/12/14 05:46:28;;;;;;;14.87;8.30;;;8.30;99.90;;;;;;5074615;28;20205;-55
2021/12/14 05:48:58;;;;;;;11.90;8.60;;;8.30;99.90;;;;;;5081629;28;20234;-54
2021/12/14 05:51:28;;;;;;;14.17;9.37;;;8.30;99.90;;;;;;5080088;28;20289;-56
2021/12/14 05:53:55;;;;;;;14.50;9.00;;;8.20;99.90;;;;;;5081841;28;20301;-56
2021/12/14 05:56:24;;;;;;;14.03;8.33;;;8.30;99.90;;;;;;5070965;28;20213;-55
2021/12/14 05:58:56;;;;;;;15.60;9.80;;;8.30;99.90;;;;;;5070679;28;20812;-55
2021/12/14 06:01:27;;;;;;;14.83;9.33;;;8.30;99.90;;;;;;5071910;28;20292;-57
2021/12/14 06:03:58;;;;;;;13.50;9.23;;;8.40;99.90;;;;;;5071574;28;20211;-55
2021/12/14 06:06:30;;;;;;;15.73;10.17;;;8.30;99.90;;;;;;5079975;28;20657;-54
2021/12/14 06:09:11;;;;;;;14.63;9.77;;;8.30;99.90;;;;;;5076948;28;20287;-57
2021/12/14 06:11:40;;;;;;;14.93;9.77;;;8.20;99.90;;;;;;5077316;28;20236;-56
2021/12/14 06:14:20;;;;;;;13.03;9.10;;;8.20;99.90;;;;;;5077703;28;20222;-56
2021/12/14 06:16:50;;;;;;;16.03;9.77;;;8.20;99.90;;;;;;5070904;28;20286;-57
2021/12/14 06:19:22;;;;;;;14.00;9.73;;;8.20;99.90;;;;;;5071439;28;20234;-55
2021/12/14 06:21:55;;;;;;;15.07;10.07;;;8.20;99.90;;;;;;5074654;28;20243;-57
2021/12/14 06:24:25;;;;;;;15.63;9.40;;;8.20;99.90;;;;;;5071843;28;20229;-56
2021/12/14 06:27:00;;;;;;;15.40;9.43;;;8.20;99.90;;;;;;5067475;28;20203;-55
2021/12/14 06:29:33;;;;;;;15.87;9.90;;;8.10;99.90;;;;;;5074314;28;20319;-55
2021/12/14 06:32:31;;;;;;;14.87;10.23;;;8.10;99.90;;;;;;5073502;28;20223;-55
2021/12/14 06:35:07;;;;;;;16.40;10.60;;;8.20;99.90;;;;;;5065928;28;20246;-55
2021/12/14 06:40:48;;;;;;;16.17;10.17;;;8.10;99.90;;;;;;5069358;28;20235;-57
2021/12/14 06:43:19;;;;;;;15.33;10.00;;;8.20;99.90;;;;;;5074351;28;20204;-58
2021/12/14 06:45:55;;;;;;;17.33;10.77;;;8.30;99.90;;;;;;5071844;28;20298;-56
2021/12/14 06:48:30;;;;;;;17.57;11.30;;;8.30;99.90;;;;;;5070914;28;20233;-56
2021/12/14 06:51:00;;;;;;;18.10;10.43;;;8.30;99.90;;;;;;5072210;28;20238;-55
2021/12/14 06:53:28;;;;;;;18.80;12.13;;;8.20;99.90;;;;;;5073017;28;20210;-56
2021/12/14 06:55:57;;;;;;;16.97;11.47;;;8.30;99.90;;;;;;5075021;28;20614;-57
2021/12/14 06:58:27;;;;;;;16.57;10.57;;;8.30;99.90;;;;;;5071674;28;20192;-55
2021/12/14 07:01:10;;;;;;;18.40;10.83;;;8.30;99.90;;;;;;5071796;28;20546;-54
2021/12/14 07:03:38;;;;;;;18.97;11.17;;;8.20;99.90;;;;;;5072498;28;20707;-55
2021/12/14 07:06:06;;;;;;;18.73;11.60;;;8.20;99.90;;;;;;5074179;28;20257;-55
2021/12/14 07:08:33;;;;;;;17.30;11.40;;;8.20;99.90;;;;;;5072924;28;20200;-55
2021/12/14 07:11:00;;;;;;;17.27;11.17;;;8.20;99.90;;;;;;5078159;28;20378;-57
2021/12/14 07:13:36;;;;;;;26.73;16.17;;;8.20;99.90;;;;;;5073619;28;20525;-55
2021/12/14 07:16:19;;;;;;;20.93;13.67;;;8.20;99.90;;;;;;5068987;28;20319;-56
2021/12/14 07:18:55;;;;;;;25.13;14.57;;;8.30;99.90;;;;;;5070415;28;20206;-56
2021/12/14 07:21:46;;;;;;;21.63;12.63;;;8.30;99.90;;;;;;5059804;28;20219;-54
2021/12/14 07:24:22;;;;;;;18.40;11.87;;;8.30;99.90;;;;;;5060706;28;20287;-56
2021/12/14 07:27:14;;;;;;;19.17;11.07;;;8.30;99.90;;;;;;5065971;28;20648;-55
2021/12/14 07:29:42;;;;;;;21.47;12.33;;;8.30;99.90;;;;;;5060406;28;20303;-55
2021/12/14 07:32:09;;;;;;;19.17;11.40;;;8.30;99.90;;;;;;5068033;28;20404;-57
2021/12/14 07:34:36;;;;;;;23.20;13.70;;;8.30;99.90;;;;;;5065757;28;20292;-54
2021/12/14 07:37:03;;;;;;;30.37;13.00;;;8.40;99.90;;;;;;5062395;28;20227;-55
2021/12/14 07:39:30;;;;;;;25.63;12.20;;;8.40;99.90;;;;;;5068367;28;22443;-55
2021/12/14 07:41:59;;;;;;;21.53;12.83;;;8.40;99.90;;;;;;5070573;28;20723;-55
2021/12/14 07:44:29;;;;;;;20.17;12.20;;;8.40;99.90;;;;;;5069151;28;20234;-56
2021/12/14 07:47:07;;;;;;;24.07;13.87;;;8.40;99.90;;;;;;5076701;28;20243;-55
2021/12/14 07:49:42;;;;;;;24.60;12.87;;;8.40;99.90;;;;;;5071238;28;20227;-56
2021/12/14 07:52:08;;;;;;;22.80;13.40;;;8.40;99.90;;;;;;5069878;28;20355;-56
2021/12/14 07:54:55;;;;;;;20.40;12.17;;;8.40;99.90;;;;;;5061774;28;20304;-55
2021/12/14 07:57:26;;;;;;;19.37;12.17;;;8.40;99.90;;;;;;5054062;28;20300;-56
2021/12/14 08:00:00;;;;;;;23.23;12.33;;;8.30;99.90;;;;;;5074540;28;20670;-56
2021/12/14 08:02:35;;;;;;;22.73;13.40;;;8.30;99.90;;;;;;5075189;28;20281;-55
2021/12/14 08:05:28;;;;;;;21.33;12.33;;;8.30;99.90;;;;;;5076930;28;20198;-55
2021/12/14 08:07:57;;;;;;;33.90;12.63;;;8.20;99.90;;;;;;5071263;28;20618;-55
2021/12/14 08:10:38;;;;;;;27.60;13.23;;;8.30;99.90;;;;;;5078794;28;20206;-57
2021/12/14 08:13:13;;;;;;;20.00;12.33;;;8.30;99.90;;;;;;5072995;28;20735;-56
2021/12/14 08:15:50;;;;;;;22.17;13.27;;;8.30;99.90;;;;;;5071021;28;20868;-54
2021/12/14 08:18:25;;;;;;;34.27;13.00;;;8.40;99.90;;;;;;5073778;28;20545;-57
2021/12/14 08:20:59;;;;;;;25.10;14.37;;;8.40;99.90;;;;;;5069177;28;20202;-55
2021/12/14 08:23:33;;;;;;;23.57;14.27;;;8.40;99.90;;;;;;5070741;28;20280;-57
2021/12/14 08:26:03;;;;;;;24.20;14.63;;;8.50;99.90;;;;;;5072352;28;20624;-56
2021/12/14 08:28:29;;;;;;;24.50;14.03;;;8.50;99.90;;;;;;5069754;28;20304;-57
2021/12/14 08:31:09;;;;;;;22.37;13.37;;;8.40;99.90;;;;;;5076408;28;20367;-57
2021/12/14 08:33:36;;;;;;;24.80;13.20;;;8.40;99.90;;;;;;5072935;28;20210;-56
2021/12/14 08:36:05;;;;;;;22.93;13.67;;;8.40;99.90;;;;;;5083128;28;20301;-56
2021/12/14 08:38:35;;;;;;;24.60;14.00;;;8.40;99.90;;;;;;5077864;28;20855;-56
2021/12/14 08:41:13;;;;;;;23.23;13.47;;;8.40;99.90;;;;;;5077238;28;20261;-56
2021/12/14 08:43:48;;;;;;;26.13;15.00;;;8.40;99.90;;;;;;5074630;28;20683;-55
2021/12/14 08:46:24;;;;;;;28.07;15.83;;;8.40;99.90;;;;;;5078616;28;20659;-55
2021/12/14 08:48:57;;;;;;;27.10;15.37;;;8.40;99.90;;;;;;5068649;28;20743;-55
2021/12/14 08:51:32;;;;;;;25.70;13.93;;;8.50;99.90;;;;;;5076143;28;20242;-54
2021/12/14 08:54:13;;;;;;;24.40;14.60;;;8.40;99.90;;;;;;5071176;28;20558;-56
2021/12/14 08:57:02;;;;;;;39.97;22.07;;;8.40;99.90;;;;;;5079418;28;20252;-61
2021/12/14 08:59:30;;;;;;;27.30;14.63;;;8.40;99.90;;;;;;5074553;28;20203;-55
2021/12/14 09:01:59;;;;;;;30.90;15.03;;;8.40;99.90;;;;;;5079360;28;20702;-55
2021/12/14 09:04:34;;;;;;;58.67;16.00;;;8.50;99.90;;;;;;5073370;28;20216;-55
2021/12/14 09:07:07;;;;;;;25.93;14.97;;;8.50;99.90;;;;;;5075031;28;20195;-57
2021/12/14 09:09:34;;;;;;;25.90;14.90;;;8.60;99.90;;;;;;5078522;28;20654;-56
2021/12/14 09:12:10;;;;;;;28.50;14.53;;;8.60;99.90;;;;;;5068298;28;20849;-57
2021/12/14 09:14:38;;;;;;;47.60;17.67;;;8.60;99.90;;;;;;5074723;28;20273;-55
2021/12/14 09:17:08;;;;;;;31.43;15.20;;;8.70;99.90;;;;;;5072562;28;20198;-55
2021/12/14 09:19:45;;;;;;;30.60;16.20;;;8.70;99.90;;;;;;5072942;28;21117;-56
2021/12/14 09:22:19;;;;;;;36.70;16.10;;;8.70;99.90;;;;;;5073609;28;20275;-54
2021/12/14 09:24:47;;;;;;;36.63;16.40;;;8.70;99.90;;;;;;5073987;28;20212;-55
2021/12/14 09:27:20;;;;;;;27.40;16.67;;;8.70;99.90;;;;;;5073023;28;21128;-55
2021/12/14 09:29:48;;;;;;;39.63;22.20;;;8.80;99.90;;;;;;5066527;28;20620;-55
2021/12/14 09:32:21;;;;;;;49.53;17.60;;;8.90;99.90;;;;;;5084422;28;20262;-55
2021/12/14 09:34:48;;;;;;;31.00;17.40;;;8.90;99.90;;;;;;5084271;28;20509;-55
2021/12/14 09:37:18;;;;;;;34.37;16.30;;;9.10;99.90;;;;;;5082331;28;20229;-55
2021/12/14 09:39:52;;;;;;;33.80;14.73;;;9.10;99.90;;;;;;5084732;28;20282;-57
2021/12/14 09:42:24;;;;;;;38.17;16.80;;;9.10;99.90;;;;;;5085758;28;20665;-55
2021/12/14 09:44:54;;;;;;;42.97;15.83;;;9.10;99.90;;;;;;5080008;28;20233;-56
2021/12/14 09:47:26;;;;;;;33.23;15.53;;;9.10;99.90;;;;;;5079214;28;20281;-55
2021/12/14 09:49:54;;;;;;;34.47;16.20;;;9.00;99.90;;;;;;5082755;28;20663;-55
2021/12/14 09:52:31;;;;;;;34.90;15.53;;;9.00;99.90;;;;;;5086452;28;20706;-55
2021/12/14 09:54:59;;;;;;;31.17;15.20;;;9.10;99.90;;;;;;5083511;28;20698;-55
2021/12/14 09:57:35;;;;;;;29.03;17.33;;;9.20;99.90;;;;;;5074248;28;20200;-55
2021/12/14 10:00:10;;;;;;;35.60;18.63;;;9.20;99.90;;;;;;5079809;28;20247;-55
2021/12/14 10:02:40;;;;;;;32.37;15.77;;;9.10;99.90;;;;;;5076598;28;20286;-56
2021/12/14 10:05:32;;;;;;;35.30;14.50;;;9.10;99.90;;;;;;5062887;28;20215;-56
2021/12/14 10:08:02;;;;;;;30.40;16.30;;;9.10;99.90;;;;;;5079252;28;20278;-55
2021/12/14 10:10:36;;;;;;;32.40;15.33;;;9.20;99.90;;;;;;5076171;28;20258;-55
2021/12/14 10:13:03;;;;;;;59.60;16.00;;;9.20;99.90;;;;;;5083766;28;20227;-55
2021/12/14 10:15:35;;;;;;;46.17;16.60;;;9.20;99.90;;;;;;5082673;28;20254;-57
2021/12/14 10:18:20;;;;;;;55.73;17.37;;;9.20;99.90;;;;;;5083182;28;20246;-55
2021/12/14 10:21:10;;;;;;;26.27;14.90;;;9.20;99.90;;;;;;5081245;28;20235;-54
2021/12/14 10:23:40;;;;;;;39.33;16.33;;;9.20;99.90;;;;;;5082748;28;20233;-54
2021/12/14 10:26:09;;;;;;;36.00;16.67;;;9.20;99.90;;;;;;5079148;28;21074;-54
2021/12/14 10:28:39;;;;;;;37.07;17.50;;;9.10;99.90;;;;;;5081066;28;20317;-54
2021/12/14 10:31:10;;;;;;;38.07;17.13;;;9.20;99.90;;;;;;5073132;28;20767;-56
2021/12/14 10:33:40;;;;;;;97.27;19.87;;;9.20;99.90;;;;;;5074860;28;20195;-55
2021/12/14 10:36:23;;;;;;;153.57;23.47;;;9.20;99.90;;;;;;5083523;28;20698;-54
2021/12/14 10:39:07;;;;;;;55.30;18.53;;;9.30;99.90;;;;;;5082256;28;20200;-56
2021/12/14 10:44:26;;;;;;;31.00;17.17;;;9.40;99.90;;;;;;5072746;28;20216;-55
2021/12/14 10:46:54;;;;;;;54.23;18.70;;;9.40;99.90;;;;;;5076281;28;20210;-54
2021/12/14 10:49:24;;;;;;;31.87;18.40;;;9.30;99.90;;;;;;5073015;28;20744;-57
2021/12/14 10:51:57;;;;;;;180.07;25.67;;;9.30;99.90;;;;;;5079259;28;20296;-55
2021/12/14 10:54:27;;;;;;;38.87;17.53;;;9.40;99.90;;;;;;5082785;28;20711;-56
2021/12/14 10:57:00;;;;;;;56.43;18.47;;;9.40;99.90;;;;;;5071295;28;20340;-55
2021/12/14 10:59:32;;;;;;;46.13;18.60;;;9.50;99.90;;;;;;5075880;28;20604;-55
2021/12/14 11:02:00;;;;;;;28.87;17.00;;;9.50;99.90;;;;;;5072049;28;20677;-54
2021/12/14 11:04:41;;;;;;;77.33;21.00;;;9.50;99.90;;;;;;5079216;28;20201;-54
2021/12/14 11:07:15;;;;;;;40.83;18.47;;;9.50;99.90;;;;;;5073625;28;20248;-55
2021/12/14 11:09:43;;;;;;;40.20;17.83;;;9.60;99.90;;;;;;5074083;28;20283;-55
2021/12/14 11:12:24;;;;;;;32.13;19.33;;;9.60;99.90;;;;;;5078946;28;20202;-54
2021/12/14 11:14:57;;;;;;;45.00;18.93;;;9.50;99.90;;;;;;5076861;28;20198;-56
2021/12/14 11:20:25;;;;;;;32.53;19.20;;;9.70;99.90;;;;;;5079079;28;20643;-55
2021/12/14 11:22:56;;;;;;;33.87;18.27;;;9.60;99.90;;;;;;5072372;28;20335;-55
2021/12/14 11:25:45;;;;;;;36.47;19.07;;;9.60;99.90;;;;;;5076477;28;20217;-54
2021/12/14 11:28:23;;;;;;;37.53;18.33;;;9.70;99.90;;;;;;5072582;28;20228;-56
2021/12/14 11:31:02;;;;;;;31.90;18.77;;;9.70;99.90;;;;;;5066935;28;20289;-55
2021/12/14 11:33:36;;;;;;;34.37;17.93;;;9.70;99.90;;;;;;5068594;28;20298;-55
2021/12/14 11:36:12;;;;;;;36.73;20.23;;;9.70;99.90;;;;;;5066042;28;20215;-54
2021/12/14 11:38:45;;;;;;;35.13;19.93;;;9.70;99.90;;;;;;5060261;28;20197;-54
2021/12/14 11:41:38;;;;;;;35.57;19.73;;;9.70;99.90;;;;;;5071732;28;20245;-55
2021/12/14 11:44:24;;;;;;;42.37;20.57;;;9.70;99.90;;;;;;5046618;28;20671;-54
2021/12/14 11:47:03;;;;;;;37.17;20.30;;;9.60;99.90;;;;;;5073228;28;20310;-54
2021/12/14 11:49:45;;;;;;;38.93;21.00;;;9.70;99.90;;;;;;5073300;28;20683;-54
2021/12/14 11:52:13;;;;;;;36.57;19.37;;;9.70;99.90;;;;;;5074429;28;20265;-54
2021/12/14 11:54:47;;;;;;;35.37;20.27;;;9.80;99.90;;;;;;5079006;28;20198;-54
2021/12/14 11:57:16;;;;;;;35.13;20.43;;;9.80;99.90;;;;;;5073758;28;20678;-54
2021/12/14 11:59:44;;;;;;;35.40;19.73;;;9.70;99.90;;;;;;5073287;28;20892;-54
2021/12/14 12:02:12;;;;;;;38.43;21.20;;;9.70;99.90;;;;;;5076733;28;20880;-54
2021/12/14 12:04:44;;;;;;;38.20;21.00;;;9.70;99.90;;;;;;5075668;28;20201;-54
2021/12/14 12:09:54;;;;;;;103.83;30.57;;;9.70;99.90;;;;;;5083839;28;20211;-55
2021/12/14 12:12:33;;;;;;;77.10;26.50;;;9.80;99.90;;;;;;5084314;28;20236;-54
2021/12/14 12:15:04;;;;;;;133.10;34.03;;;9.80;99.90;;;;;;5091894;28;20602;-54
2021/12/14 12:18:01;;;;;;;78.77;25.73;;;9.80;99.90;;;;;;5082256;28;20237;-54
2021/12/14 12:20:47;;;;;;;39.80;21.53;;;9.90;99.90;;;;;;5080556;28;21218;-53
2021/12/14 12:23:17;;;;;;;42.87;22.77;;;9.80;99.90;;;;;;5084728;28;20226;-54
2021/12/14 12:26:01;;;;;;;72.63;23.07;;;9.90;99.90;;;;;;5078867;28;20263;-54
2021/12/14 12:28:33;;;;;;;40.50;23.40;;;9.80;99.90;;;;;;5083508;28;20545;-56
2021/12/14 12:31:06;;;;;;;43.37;23.00;;;9.80;99.90;;;;;;5078355;28;20206;-54
2021/12/14 12:33:40;;;;;;;38.93;21.73;;;9.90;99.90;;;;;;5073438;28;20206;-55
2021/12/14 12:36:18;;;;;;;42.73;21.10;;;9.90;99.90;;;;;;5082088;28;20325;-55
2021/12/14 12:38:50;;;;;;;40.97;21.27;;;9.90;99.90;;;;;;5074293;28;20202;-54
2021/12/14 12:41:26;;;;;;;45.87;22.57;;;10.00;99.90;;;;;;5072909;28;20222;-55
2021/12/14 12:43:59;;;;;;;46.97;25.93;;;9.90;99.90;;;;;;5087580;28;20229;-55
2021/12/14 12:46:34;;;;;;;42.40;21.60;;;9.90;99.90;;;;;;5077681;28;20223;-56
2021/12/14 12:49:11;;;;;;;46.17;22.47;;;9.90;99.90;;;;;;5082995;28;20204;-55
2021/12/14 12:51:41;;;;;;;39.73;21.77;;;9.90;99.90;;;;;;5081644;28;20225;-54
2021/12/14 12:54:23;;;;;;;44.73;21.20;;;10.00;99.90;;;;;;5075453;28;20686;-55
2021/12/14 12:57:14;;;;;;;41.00;22.90;;;9.90;99.90;;;;;;5077029;28;20303;-55
2021/12/14 12:59:55;;;;;;;40.77;22.43;;;9.70;99.90;;;;;;5073789;28;20208;-55
2021/12/14 13:02:27;;;;;;;43.40;22.57;;;9.80;99.90;;;;;;5065010;28;20200;-55
2021/12/14 13:05:25;;;;;;;53.23;26.20;;;9.80;99.90;;;;;;5077656;28;20195;-55
2021/12/14 13:08:08;;;;;;;50.33;26.57;;;9.60;99.90;;;;;;5065722;28;20277;-55
2021/12/14 13:10:55;;;;;;;50.17;24.43;;;9.70;99.90;;;;;;5079180;28;20222;-55
2021/12/14 13:13:40;;;;;;;45.27;24.60;;;9.70;99.90;;;;;;5078355;28;20233;-55
2021/12/14 13:16:21;;;;;;;43.10;22.43;;;9.70;99.90;;;;;;5080606;28;20313;-54
2021/12/14 13:18:52;;;;;;;44.23;22.03;;;9.70;99.90;;;;;;5070761;28;20277;-56
2021/12/14 13:21:25;;;;;;;48.20;23.47;;;9.70;99.90;;;;;;5069606;28;20726;-55
2021/12/14 13:24:10;;;;;;;46.70;24.50;;;9.60;99.90;;;;;;5063061;28;20281;-55
2021/12/14 13:26:57;;;;;;;41.87;22.37;;;9.60;99.90;;;;;;5071037;28;20231;-56
2021/12/14 13:29:32;;;;;;;48.43;23.43;;;9.70;99.90;;;;;;5069940;28;20200;-55
2021/12/14 13:32:21;;;;;;;46.57;24.03;;;9.70;99.90;;;;;;5070374;28;20226;-56
2021/12/14 13:35:06;;;;;;;48.07;24.23;;;9.80;99.90;;;;;;5073235;28;20261;-54
2021/12/14 13:37:46;;;;;;;49.23;22.93;;;9.70;99.90;;;;;;5075936;28;20227;-55
2021/12/14 13:40:35;;;;;;;45.00;22.80;;;9.70;99.90;;;;;;5079008;28;21259;-56
2021/12/14 13:43:22;;;;;;;50.33;24.57;;;9.70;99.90;;;;;;5053921;28;20196;-55
2021/12/14 13:46:01;;;;;;;48.27;24.47;;;9.70;99.90;;;;;;5051293;28;20320;-54
2021/12/14 13:48:33;;;;;;;45.23;22.60;;;9.70;99.90;;;;;;5057205;28;20211;-55
2021/12/14 13:51:15;;;;;;;45.23;23.53;;;9.70;99.90;;;;;;5066008;28;20351;-55
2021/12/14 13:53:42;;;;;;;47.00;23.57;;;9.80;99.90;;;;;;5079619;28;20247;-54
2021/12/14 13:56:19;;;;;;;46.40;24.73;;;9.80;99.90;;;;;;5070920;28;20219;-56